sensor_id;sensor_type;location;lat;lon;timestamp;temperature;humidity
6468;DHT22;3267;48.794;9.928;2023-05-14T04:02:22;13.60;88.20
6468;DHT22;3267;48.794;9.928;2023-05-14T04:04:48;13.70;88.30
6468;DHT22;3267;48.794;9.928;2023-05-14T04:07:14;13.70;88.50
6468;DHT22;3267;48.794;9.928;2023-05-14T04:09:39;13.70;88.50
6468;DHT22;3267;48.794;9.928;2023-05-14T04:12:05;13.70;88.50
6468;DHT22;3267;48.794;9.928;2023-05-14T04:14:31;13.70;88.30
6468;DHT22;3267;48.794;9.928;2023-05-14T04:16:57;13.80;88.00
6468;DHT22;3267;48.794;9.928;2023-05-14T04:19:22;13.80;88.00
6468;DHT22;3267;48.794;9.928;2023-05-14T04:21:48;13.80;87.80
6468;DHT22;3267;48.794;9.928;2023-05-14T04:24:14;13.80;87.60
6468;DHT22;3267;48.794;9.928;2023-05-14T04:26:40;14.20;88.20
6468;DHT22;3267;48.794;9.928;2023-05-14T04:29:05;14.20;88.20
6468;DHT22;3267;48.794;9.928;2023-05-14T04:31:31;13.80;87.80
6468;DHT22;3267;48.794;9.928;2023-05-14T04:33:57;13.80;87.80
6468;DHT22;3267;48.794;9.928;2023-05-14T04:36:23;13.70;87.80
6468;DHT22;3267;48.794;9.928;2023-05-14T04:38:48;13.70;87.90
6468;DHT22;3267;48.794;9.928;2023-05-14T04:41:14;13.80;87.90
6468;DHT22;3267;48.794;9.928;2023-05-14T04:43:39;13.70;87.80
6468;DHT22;3267;48.794;9.928;2023-05-14T04:46:05;13.70;87.90
6468;DHT22;3267;48.794;9.928;2023-05-14T04:48:31;13.70;87.90
6468;DHT22;3267;48.794;9.928;2023-05-14T04:50:56;13.70;87.80
6468;DHT22;3267;48.794;9.928;2023-05-14T04:53:22;14.30;88.50
6468;DHT22;3267;48.794;9.928;2023-05-14T04:55:48;13.80;87.90
6468;DHT22;3267;48.794;9.928;2023-05-14T04:58:14;13.80;87.90
6468;DHT22;3267;48.794;9.928;2023-05-14T05:00:39;13.80;87.90
6468;DHT22;3267;48.794;9.928;2023-05-14T05:03:05;13.70;87.90
6468;DHT22;3267;48.794;9.928;2023-05-14T05:05:31;14.40;88.50
6468;DHT22;3267;48.794;9.928;2023-05-14T05:07:56;13.80;87.90
6468;DHT22;3267;48.794;9.928;2023-05-14T05:10:22;13.80;88.00
6468;DHT22;3267;48.794;9.928;2023-05-14T05:12:48;13.80;87.90
6468;DHT22;3267;48.794;9.928;2023-05-14T05:15:13;13.80;87.80
6468;DHT22;3267;48.794;9.928;2023-05-14T05:17:39;13.80;88.10
6468;DHT22;3267;48.794;9.928;2023-05-14T05:20:05;13.80;87.90
6468;DHT22;3267;48.794;9.928;2023-05-14T05:22:34;13.80;88.10
6468;DHT22;3267;48.794;9.928;2023-05-14T05:24:59;13.80;87.90
6468;DHT22;3267;48.794;9.928;2023-05-14T05:27:25;14.00;88.20
6468;DHT22;3267;48.794;9.928;2023-05-14T05:29:51;13.80;88.30
6468;DHT22;3267;48.794;9.928;2023-05-14T05:32:16;14.30;88.90
6468;DHT22;3267;48.794;9.928;2023-05-14T05:34:42;14.40;89.00
6468;DHT22;3267;48.794;9.928;2023-05-14T05:37:08;13.90;88.50
6468;DHT22;3267;48.794;9.928;2023-05-14T05:39:37;13.90;88.50
6468;DHT22;3267;48.794;9.928;2023-05-14T05:42:04;13.90;88.50
6468;DHT22;3267;48.794;9.928;2023-05-14T05:44:30;13.90;88.50
6468;DHT22;3267;48.794;9.928;2023-05-14T05:46:55;13.90;88.40
6468;DHT22;3267;48.794;9.928;2023-05-14T05:49:22;14.00;88.30
6468;DHT22;3267;48.794;9.928;2023-05-14T05:51:47;14.10;88.30
6468;DHT22;3267;48.794;9.928;2023-05-14T05:54:13;14.10;88.10
6468;DHT22;3267;48.794;9.928;2023-05-14T05:56:39;14.10;88.00
6468;DHT22;3267;48.794;9.928;2023-05-14T05:59:04;14.20;88.20
6468;DHT22;3267;48.794;9.928;2023-05-14T06:01:30;14.20;88.60
6468;DHT22;3267;48.794;9.928;2023-05-14T06:03:56;14.20;89.20
6468;DHT22;3267;48.794;9.928;2023-05-14T06:06:22;14.20;89.40
6468;DHT22;3267;48.794;9.928;2023-05-14T06:08:47;14.20;89.50
6468;DHT22;3267;48.794;9.928;2023-05-14T06:11:13;14.20;89.70
6468;DHT22;3267;48.794;9.928;2023-05-14T06:13:39;14.20;89.90
6468;DHT22;3267;48.794;9.928;2023-05-14T06:16:05;14.20;90.00
6468;DHT22;3267;48.794;9.928;2023-05-14T06:18:31;14.30;90.00
6468;DHT22;3267;48.794;9.928;2023-05-14T06:20:57;14.30;90.00
6468;DHT22;3267;48.794;9.928;2023-05-14T06:23:24;14.30;90.10
6468;DHT22;3267;48.794;9.928;2023-05-14T06:25:50;14.30;90.00
6468;DHT22;3267;48.794;9.928;2023-05-14T06:28:16;16.20;91.00
6468;DHT22;3267;48.794;9.928;2023-05-14T06:30:42;14.50;90.10
6468;DHT22;3267;48.794;9.928;2023-05-14T06:33:08;14.50;90.10
6468;DHT22;3267;48.794;9.928;2023-05-14T06:35:33;14.60;90.10
6468;DHT22;3267;48.794;9.928;2023-05-14T06:37:59;14.60;90.00
6468;DHT22;3267;48.794;9.928;2023-05-14T06:40:25;14.60;90.00
6468;DHT22;3267;48.794;9.928;2023-05-14T06:42:50;15.20;90.20
6468;DHT22;3267;48.794;9.928;2023-05-14T06:45:16;14.70;90.10
6468;DHT22;3267;48.794;9.928;2023-05-14T06:47:42;14.80;90.00
6468;DHT22;3267;48.794;9.928;2023-05-14T06:50:07;14.80;90.00
6468;DHT22;3267;48.794;9.928;2023-05-14T06:52:33;14.90;90.00
6468;DHT22;3267;48.794;9.928;2023-05-14T06:54:59;15.00;89.70
6468;DHT22;3267;48.794;9.928;2023-05-14T06:57:25;15.70;90.20
6468;DHT22;3267;48.794;9.928;2023-05-14T06:59:51;15.10;89.80
6468;DHT22;3267;48.794;9.928;2023-05-14T07:02:17;15.10;89.90
6468;DHT22;3267;48.794;9.928;2023-05-14T07:04:42;15.10;90.10
6468;DHT22;3267;48.794;9.928;2023-05-14T07:07:08;15.20;90.10
6468;DHT22;3267;48.794;9.928;2023-05-14T07:09:35;15.20;90.30
6468;DHT22;3267;48.794;9.928;2023-05-14T07:12:00;15.20;90.30
6468;DHT22;3267;48.794;9.928;2023-05-14T07:14:26;15.30;90.10
6468;DHT22;3267;48.794;9.928;2023-05-14T07:16:51;15.40;90.20
6468;DHT22;3267;48.794;9.928;2023-05-14T07:19:17;15.40;90.30
6468;DHT22;3267;48.794;9.928;2023-05-14T07:21:43;15.50;89.30
6468;DHT22;3267;48.794;9.928;2023-05-14T07:24:08;15.50;89.80
6468;DHT22;3267;48.794;9.928;2023-05-14T07:26:34;16.90;90.40
6468;DHT22;3267;48.794;9.928;2023-05-14T07:28:59;15.70;89.30
6468;DHT22;3267;48.794;9.928;2023-05-14T07:31:25;15.70;89.40
6468;DHT22;3267;48.794;9.928;2023-05-14T07:33:51;15.80;88.90
6468;DHT22;3267;48.794;9.928;2023-05-14T07:36:16;15.80;89.50
6468;DHT22;3267;48.794;9.928;2023-05-14T07:38:42;15.90;89.70
6468;DHT22;3267;48.794;9.928;2023-05-14T07:41:07;16.00;90.10
6468;DHT22;3267;48.794;9.928;2023-05-14T07:43:33;16.00;89.70
6468;DHT22;3267;48.794;9.928;2023-05-14T07:45:59;16.00;89.40
6468;DHT22;3267;48.794;9.928;2023-05-14T07:48:24;16.00;89.50
6468;DHT22;3267;48.794;9.928;2023-05-14T07:50:50;16.10;89.60
6468;DHT22;3267;48.794;9.928;2023-05-14T07:53:16;16.10;90.00
6468;DHT22;3267;48.794;9.928;2023-05-14T07:55:43;16.10;89.70
6468;DHT22;3267;48.794;9.928;2023-05-14T07:58:09;16.20;90.00
6468;DHT22;3267;48.794;9.928;2023-05-14T08:00:34;16.80;90.60
6468;DHT22;3267;48.794;9.928;2023-05-14T08:03:00;16.20;89.80
6468;DHT22;3267;48.794;9.928;2023-05-14T08:05:26;16.30;89.30
6468;DHT22;3267;48.794;9.928;2023-05-14T08:07:51;16.40;89.00
6468;DHT22;3267;48.794;9.928;2023-05-14T08:10:17;16.50;88.30
6468;DHT22;3267;48.794;9.928;2023-05-14T08:12:42;16.50;88.80
6468;DHT22;3267;48.794;9.928;2023-05-14T08:15:08;16.50;88.70
6468;DHT22;3267;48.794;9.928;2023-05-14T08:17:34;16.60;88.80
6468;DHT22;3267;48.794;9.928;2023-05-14T08:20:00;16.60;88.90
6468;DHT22;3267;48.794;9.928;2023-05-14T08:22:26;16.70;89.40
6468;DHT22;3267;48.794;9.928;2023-05-14T08:24:51;16.70;89.00
6468;DHT22;3267;48.794;9.928;2023-05-14T08:27:17;16.70;89.20
6468;DHT22;3267;48.794;9.928;2023-05-14T08:29:43;17.80;90.00
6468;DHT22;3267;48.794;9.928;2023-05-14T08:32:08;16.90;88.20
6468;DHT22;3267;48.794;9.928;2023-05-14T08:34:34;16.90;87.90
6468;DHT22;3267;48.794;9.928;2023-05-14T08:37:01;16.90;88.10
6468;DHT22;3267;48.794;9.928;2023-05-14T08:39:26;16.90;88.30
6468;DHT22;3267;48.794;9.928;2023-05-14T08:41:52;16.90;88.40
6468;DHT22;3267;48.794;9.928;2023-05-14T08:44:35;16.90;88.10
6468;DHT22;3267;48.794;9.928;2023-05-14T08:47:02;16.90;88.30
6468;DHT22;3267;48.794;9.928;2023-05-14T08:49:42;17.00;87.80
6468;DHT22;3267;48.794;9.928;2023-05-14T08:52:08;17.00;88.10
6468;DHT22;3267;48.794;9.928;2023-05-14T08:54:35;17.00;88.10
6468;DHT22;3267;48.794;9.928;2023-05-14T08:57:02;17.00;88.10
6468;DHT22;3267;48.794;9.928;2023-05-14T08:59:28;17.10;87.90
6468;DHT22;3267;48.794;9.928;2023-05-14T09:01:55;17.10;88.30
6468;DHT22;3267;48.794;9.928;2023-05-14T09:04:23;19.20;90.10
6468;DHT22;3267;48.794;9.928;2023-05-14T09:06:50;17.10;88.20
6468;DHT22;3267;48.794;9.928;2023-05-14T09:09:16;17.10;88.00
6468;DHT22;3267;48.794;9.928;2023-05-14T09:11:45;17.20;88.00
6468;DHT22;3267;48.794;9.928;2023-05-14T09:14:11;17.20;87.60
6468;DHT22;3267;48.794;9.928;2023-05-14T09:16:37;17.30;87.70
6468;DHT22;3267;48.794;9.928;2023-05-14T09:19:05;17.30;87.30
6468;DHT22;3267;48.794;9.928;2023-05-14T09:21:32;18.50;88.30
6468;DHT22;3267;48.794;9.928;2023-05-14T09:23:58;17.50;87.30
6468;DHT22;3267;48.794;9.928;2023-05-14T09:26:24;17.60;86.70
6468;DHT22;3267;48.794;9.928;2023-05-14T09:28:57;17.80;87.00
6468;DHT22;3267;48.794;9.928;2023-05-14T09:31:29;17.80;86.20
6468;DHT22;3267;48.794;9.928;2023-05-14T09:33:56;17.80;86.10
6468;DHT22;3267;48.794;9.928;2023-05-14T09:36:22;17.80;85.70
6468;DHT22;3267;48.794;9.928;2023-05-14T09:38:49;18.80;86.70
6468;DHT22;3267;48.794;9.928;2023-05-14T09:41:15;17.80;85.60
6468;DHT22;3267;48.794;9.928;2023-05-14T09:43:41;18.30;86.00
6468;DHT22;3267;48.794;9.928;2023-05-14T09:46:07;17.90;85.50
6468;DHT22;3267;48.794;9.928;2023-05-14T09:48:32;18.00;85.00
6468;DHT22;3267;48.794;9.928;2023-05-14T09:50:58;18.10;85.10
6468;DHT22;3267;48.794;9.928;2023-05-14T09:53:24;18.10;84.70
6468;DHT22;3267;48.794;9.928;2023-05-14T09:55:53;18.00;84.40
6468;DHT22;3267;48.794;9.928;2023-05-14T09:58:19;18.00;84.30
6468;DHT22;3267;48.794;9.928;2023-05-14T10:00:45;18.10;84.50
6468;DHT22;3267;48.794;9.928;2023-05-14T10:03:13;18.10;84.20
6468;DHT22;3267;48.794;9.928;2023-05-14T10:05:41;18.10;84.20
6468;DHT22;3267;48.794;9.928;2023-05-14T10:08:09;18.20;84.20
6468;DHT22;3267;48.794;9.928;2023-05-14T10:10:37;18.40;84.70
6468;DHT22;3267;48.794;9.928;2023-05-14T10:13:04;18.50;84.80
6468;DHT22;3267;48.794;9.928;2023-05-14T10:15:51;18.70;84.70
6468;DHT22;3267;48.794;9.928;2023-05-14T10:18:19;18.80;85.20
6468;DHT22;3267;48.794;9.928;2023-05-14T10:21:02;18.80;84.50
6468;DHT22;3267;48.794;9.928;2023-05-14T10:23:28;18.90;84.60
6468;DHT22;3267;48.794;9.928;2023-05-14T10:25:55;19.00;84.40
6468;DHT22;3267;48.794;9.928;2023-05-14T10:28:21;19.20;83.30
6468;DHT22;3267;48.794;9.928;2023-05-14T10:30:47;19.20;82.40
6468;DHT22;3267;48.794;9.928;2023-05-14T10:33:14;19.30;82.70
6468;DHT22;3267;48.794;9.928;2023-05-14T10:38:16;19.20;83.00
6468;DHT22;3267;48.794;9.928;2023-05-14T10:40:46;18.70;82.40
6468;DHT22;3267;48.794;9.928;2023-05-14T10:43:13;19.10;82.90
6468;DHT22;3267;48.794;9.928;2023-05-14T10:45:42;19.20;82.90
6468;DHT22;3267;48.794;9.928;2023-05-14T10:48:09;19.20;82.60
6468;DHT22;3267;48.794;9.928;2023-05-14T10:50:35;19.80;82.70
6468;DHT22;3267;48.794;9.928;2023-05-14T10:53:01;19.30;82.50
6468;DHT22;3267;48.794;9.928;2023-05-14T10:55:27;21.30;84.20
6468;DHT22;3267;48.794;9.928;2023-05-14T10:57:52;19.50;82.50
6468;DHT22;3267;48.794;9.928;2023-05-14T11:00:18;19.60;81.80
6468;DHT22;3267;48.794;9.928;2023-05-14T11:02:44;19.60;82.10
6468;DHT22;3267;48.794;9.928;2023-05-14T11:05:14;20.20;82.40
6468;DHT22;3267;48.794;9.928;2023-05-14T11:07:48;19.80;84.40
6468;DHT22;3267;48.794;9.928;2023-05-14T11:10:15;19.90;81.30
6468;DHT22;3267;48.794;9.928;2023-05-14T11:12:43;20.00;81.20
6468;DHT22;3267;48.794;9.928;2023-05-14T11:15:11;22.20;84.00
6468;DHT22;3267;48.794;9.928;2023-05-14T11:17:39;20.40;82.90
6468;DHT22;3267;48.794;9.928;2023-05-14T11:20:05;20.50;80.50
6468;DHT22;3267;48.794;9.928;2023-05-14T11:22:36;20.50;80.10
6468;DHT22;3267;48.794;9.928;2023-05-14T11:25:02;22.70;83.20
6468;DHT22;3267;48.794;9.928;2023-05-14T11:27:28;20.80;81.70
6468;DHT22;3267;48.794;9.928;2023-05-14T11:29:55;23.80;83.30
6468;DHT22;3267;48.794;9.928;2023-05-14T11:32:22;22.20;81.10
6468;DHT22;3267;48.794;9.928;2023-05-14T11:34:48;21.20;80.30
6468;DHT22;3267;48.794;9.928;2023-05-14T11:37:15;21.30;79.60
6468;DHT22;3267;48.794;9.928;2023-05-14T11:39:51;21.50;86.00
6468;DHT22;3267;48.794;9.928;2023-05-14T11:42:18;21.60;88.80
6468;DHT22;3267;48.794;9.928;2023-05-14T11:44:48;22.00;82.10
6468;DHT22;3267;48.794;9.928;2023-05-14T11:47:16;21.90;80.30
6468;DHT22;3267;48.794;9.928;2023-05-14T11:49:42;21.80;78.10
6468;DHT22;3267;48.794;9.928;2023-05-14T11:52:08;21.80;79.30
6468;DHT22;3267;48.794;9.928;2023-05-14T11:54:36;21.80;78.80
6468;DHT22;3267;48.794;9.928;2023-05-14T11:57:07;22.00;78.70
6468;DHT22;3267;48.794;9.928;2023-05-14T11:59:33;22.10;77.80
6468;DHT22;3267;48.794;9.928;2023-05-14T12:02:00;21.70;77.50
6468;DHT22;3267;48.794;9.928;2023-05-14T12:04:25;21.80;83.70
6468;DHT22;3267;48.794;9.928;2023-05-14T12:06:53;21.70;79.70
6468;DHT22;3267;48.794;9.928;2023-05-14T12:09:21;21.70;81.80
6468;DHT22;3267;48.794;9.928;2023-05-14T12:11:48;21.70;78.50
6468;DHT22;3267;48.794;9.928;2023-05-14T12:14:21;21.80;79.90
6468;DHT22;3267;48.794;9.928;2023-05-14T12:16:48;22.10;90.30
6468;DHT22;3267;48.794;9.928;2023-05-14T12:19:15;23.60;83.90
6468;DHT22;3267;48.794;9.928;2023-05-14T12:21:46;22.00;81.30
6468;DHT22;3267;48.794;9.928;2023-05-14T12:24:15;22.00;80.60
6468;DHT22;3267;48.794;9.928;2023-05-14T12:26:48;24.00;82.50
6468;DHT22;3267;48.794;9.928;2023-05-14T12:29:15;23.70;82.20
6468;DHT22;3267;48.794;9.928;2023-05-14T12:31:48;22.00;80.10
6468;DHT22;3267;48.794;9.928;2023-05-14T12:34:15;21.90;79.90
6468;DHT22;3267;48.794;9.928;2023-05-14T12:36:41;21.80;78.00
6468;DHT22;3267;48.794;9.928;2023-05-14T12:39:08;21.70;77.40
6468;DHT22;3267;48.794;9.928;2023-05-14T12:41:34;21.50;76.30
6468;DHT22;3267;48.794;9.928;2023-05-14T12:44:02;21.30;74.80
6468;DHT22;3267;48.794;9.928;2023-05-14T12:46:28;21.30;75.80
6468;DHT22;3267;48.794;9.928;2023-05-14T12:48:54;21.10;77.20
6468;DHT22;3267;48.794;9.928;2023-05-14T12:51:20;21.00;77.60
6468;DHT22;3267;48.794;9.928;2023-05-14T12:53:46;21.00;77.00
6468;DHT22;3267;48.794;9.928;2023-05-14T12:56:12;22.90;79.50
6468;DHT22;3267;48.794;9.928;2023-05-14T12:58:38;21.50;78.30
6468;DHT22;3267;48.794;9.928;2023-05-14T13:01:04;21.90;75.90
6468;DHT22;3267;48.794;9.928;2023-05-14T13:03:30;21.00;76.10
6468;DHT22;3267;48.794;9.928;2023-05-14T13:05:56;20.90;75.00
6468;DHT22;3267;48.794;9.928;2023-05-14T13:08:22;20.90;75.80
6468;DHT22;3267;48.794;9.928;2023-05-14T13:10:53;21.00;75.50
6468;DHT22;3267;48.794;9.928;2023-05-14T13:13:19;21.10;76.20
6468;DHT22;3267;48.794;9.928;2023-05-14T13:15:44;21.60;77.30
6468;DHT22;3267;48.794;9.928;2023-05-14T13:18:15;21.30;76.70
6468;DHT22;3267;48.794;9.928;2023-05-14T13:20:41;21.40;75.70
6468;DHT22;3267;48.794;9.928;2023-05-14T13:23:07;21.40;75.30
6468;DHT22;3267;48.794;9.928;2023-05-14T13:25:32;21.40;74.70
6468;DHT22;3267;48.794;9.928;2023-05-14T13:27:58;21.40;74.90
6468;DHT22;3267;48.794;9.928;2023-05-14T13:30:24;22.10;74.20
6468;DHT22;3267;48.794;9.928;2023-05-14T13:32:50;21.50;74.90
6468;DHT22;3267;48.794;9.928;2023-05-14T13:35:15;21.60;73.40
6468;DHT22;3267;48.794;9.928;2023-05-14T13:37:44;21.60;73.70
6468;DHT22;3267;48.794;9.928;2023-05-14T13:40:10;21.60;73.20
6468;DHT22;3267;48.794;9.928;2023-05-14T13:42:36;21.50;71.80
6468;DHT22;3267;48.794;9.928;2023-05-14T13:45:04;21.60;74.20
6468;DHT22;3267;48.794;9.928;2023-05-14T13:47:31;21.80;74.40
6468;DHT22;3267;48.794;9.928;2023-05-14T13:49:57;22.10;74.40
6468;DHT22;3267;48.794;9.928;2023-05-14T13:52:23;22.50;73.80
6468;DHT22;3267;48.794;9.928;2023-05-14T13:54:49;22.90;74.00
6468;DHT22;3267;48.794;9.928;2023-05-14T13:57:14;23.10;73.20
6468;DHT22;3267;48.794;9.928;2023-05-14T13:59:40;23.40;73.60
6468;DHT22;3267;48.794;9.928;2023-05-14T14:02:07;23.80;73.40
6468;DHT22;3267;48.794;9.928;2023-05-14T14:04:33;23.90;71.20
6468;DHT22;3267;48.794;9.928;2023-05-14T14:06:58;24.00;71.70
6468;DHT22;3267;48.794;9.928;2023-05-14T14:09:24;26.10;72.90
6468;DHT22;3267;48.794;9.928;2023-05-14T14:11:50;24.00;71.80
6468;DHT22;3267;48.794;9.928;2023-05-14T14:14:16;23.80;70.30
6468;DHT22;3267;48.794;9.928;2023-05-14T14:16:42;23.60;70.80
6468;DHT22;3267;48.794;9.928;2023-05-14T14:19:08;23.80;71.80
6468;DHT22;3267;48.794;9.928;2023-05-14T14:21:34;24.80;73.70
6468;DHT22;3267;48.794;9.928;2023-05-14T14:24:01;23.60;70.70
6468;DHT22;3267;48.794;9.928;2023-05-14T14:26:27;23.20;70.60
6468;DHT22;3267;48.794;9.928;2023-05-14T14:28:53;23.10;72.80
6468;DHT22;3267;48.794;9.928;2023-05-14T14:31:19;23.00;71.80
6468;DHT22;3267;48.794;9.928;2023-05-14T14:33:45;23.10;73.50
6468;DHT22;3267;48.794;9.928;2023-05-14T14:36:11;23.30;72.80
6468;DHT22;3267;48.794;9.928;2023-05-14T14:38:37;23.40;71.60
6468;DHT22;3267;48.794;9.928;2023-05-14T14:41:04;23.50;71.10
6468;DHT22;3267;48.794;9.928;2023-05-14T14:43:32;24.10;71.90
6468;DHT22;3267;48.794;9.928;2023-05-14T14:45:58;25.30;74.50
6468;DHT22;3267;48.794;9.928;2023-05-14T14:48:34;24.90;70.90
6468;DHT22;3267;48.794;9.928;2023-05-14T14:51:04;25.20;70.50
6468;DHT22;3267;48.794;9.928;2023-05-14T14:53:30;25.70;71.00
6468;DHT22;3267;48.794;9.928;2023-05-14T14:55:57;28.30;73.90
6468;DHT22;3267;48.794;9.928;2023-05-14T14:58:23;26.60;70.80
6468;DHT22;3267;48.794;9.928;2023-05-14T15:00:50;27.30;70.30
6468;DHT22;3267;48.794;9.928;2023-05-14T15:03:17;27.80;69.70
6468;DHT22;3267;48.794;9.928;2023-05-14T15:05:43;28.20;66.40
6468;DHT22;3267;48.794;9.928;2023-05-14T15:08:09;29.40;66.80
6468;DHT22;3267;48.794;9.928;2023-05-14T15:10:35;28.80;62.30
6468;DHT22;3267;48.794;9.928;2023-05-14T15:13:03;30.90;65.00
6468;DHT22;3267;48.794;9.928;2023-05-14T15:15:32;30.50;66.20
6468;DHT22;3267;48.794;9.928;2023-05-14T15:17:58;28.70;66.40
6468;DHT22;3267;48.794;9.928;2023-05-14T15:20:23;29.10;66.00
6468;DHT22;3267;48.794;9.928;2023-05-14T15:22:49;29.50;64.60
6468;DHT22;3267;48.794;9.928;2023-05-14T15:25:20;30.00;65.00
6468;DHT22;3267;48.794;9.928;2023-05-14T15:27:46;30.40;64.80
6468;DHT22;3267;48.794;9.928;2023-05-14T15:30:12;31.00;63.80
6468;DHT22;3267;48.794;9.928;2023-05-14T15:32:55;31.20;64.00
6468;DHT22;3267;48.794;9.928;2023-05-14T15:35:21;31.70;65.90
6468;DHT22;3267;48.794;9.928;2023-05-14T15:37:46;32.00;62.90
6468;DHT22;3267;48.794;9.928;2023-05-14T15:40:12;32.20;63.10
6468;DHT22;3267;48.794;9.928;2023-05-14T15:42:39;32.40;62.20
6468;DHT22;3267;48.794;9.928;2023-05-14T15:45:10;33.60;63.30
6468;DHT22;3267;48.794;9.928;2023-05-14T15:47:36;32.80;62.00
6468;DHT22;3267;48.794;9.928;2023-05-14T15:50:02;32.70;60.50
6468;DHT22;3267;48.794;9.928;2023-05-14T15:52:28;32.90;57.90
6468;DHT22;3267;48.794;9.928;2023-05-14T15:54:54;32.70;57.40
6468;DHT22;3267;48.794;9.928;2023-05-14T15:57:22;32.60;58.70
6468;DHT22;3267;48.794;9.928;2023-05-14T15:59:48;33.40;59.70
6468;DHT22;3267;48.794;9.928;2023-05-14T16:02:15;32.60;57.80
6468;DHT22;3267;48.794;9.928;2023-05-14T16:04:40;32.00;55.90
6468;DHT22;3267;48.794;9.928;2023-05-14T16:07:07;31.50;56.90
6468;DHT22;3267;48.794;9.928;2023-05-14T16:09:39;30.80;58.10
6468;DHT22;3267;48.794;9.928;2023-05-14T16:12:05;30.40;58.60
6468;DHT22;3267;48.794;9.928;2023-05-14T16:14:35;29.90;59.50
6468;DHT22;3267;48.794;9.928;2023-05-14T16:17:00;29.30;58.30
6468;DHT22;3267;48.794;9.928;2023-05-14T16:19:26;28.60;58.60
6468;DHT22;3267;48.794;9.928;2023-05-14T16:21:52;28.20;60.30
6468;DHT22;3267;48.794;9.928;2023-05-14T16:24:18;27.50;61.40
6468;DHT22;3267;48.794;9.928;2023-05-14T16:26:44;27.20;62.40
6468;DHT22;3267;48.794;9.928;2023-05-14T16:29:10;26.90;62.40
6468;DHT22;3267;48.794;9.928;2023-05-14T16:31:36;27.40;63.90
6468;DHT22;3267;48.794;9.928;2023-05-14T16:34:01;26.30;59.80
6468;DHT22;3267;48.794;9.928;2023-05-14T16:36:27;27.40;62.00
6468;DHT22;3267;48.794;9.928;2023-05-14T16:38:53;25.70;62.30
6468;DHT22;3267;48.794;9.928;2023-05-14T16:41:19;25.30;62.70
6468;DHT22;3267;48.794;9.928;2023-05-14T16:43:46;25.20;66.40
6468;DHT22;3267;48.794;9.928;2023-05-14T16:46:12;25.00;64.80
6468;DHT22;3267;48.794;9.928;2023-05-14T16:48:37;26.10;68.30
6468;DHT22;3267;48.794;9.928;2023-05-14T16:51:03;26.20;67.70
6468;DHT22;3267;48.794;9.928;2023-05-14T16:53:37;24.50;63.40
6468;DHT22;3267;48.794;9.928;2023-05-14T16:56:03;24.40;66.00
6468;DHT22;3267;48.794;9.928;2023-05-14T16:58:41;24.20;65.00
6468;DHT22;3267;48.794;9.928;2023-05-14T17:01:07;24.10;62.00
6468;DHT22;3267;48.794;9.928;2023-05-14T17:03:32;23.90;63.40
6468;DHT22;3267;48.794;9.928;2023-05-14T17:05:58;23.90;63.50
6468;DHT22;3267;48.794;9.928;2023-05-14T17:08:24;24.30;63.00
6468;DHT22;3267;48.794;9.928;2023-05-14T17:10:50;25.70;63.60
6468;DHT22;3267;48.794;9.928;2023-05-14T17:13:16;26.00;61.30
6468;DHT22;3267;48.794;9.928;2023-05-14T17:15:41;26.90;61.80
6468;DHT22;3267;48.794;9.928;2023-05-14T17:18:07;27.70;63.10
6468;DHT22;3267;48.794;9.928;2023-05-14T17:20:33;28.10;62.70
6468;DHT22;3267;48.794;9.928;2023-05-14T17:22:59;28.30;62.20
6468;DHT22;3267;48.794;9.928;2023-05-14T17:25:24;29.00;61.90
6468;DHT22;3267;48.794;9.928;2023-05-14T17:27:51;28.80;61.40
6468;DHT22;3267;48.794;9.928;2023-05-14T17:30:17;29.20;61.50
6468;DHT22;3267;48.794;9.928;2023-05-14T17:32:44;29.60;60.80
6468;DHT22;3267;48.794;9.928;2023-05-14T17:35:10;30.00;60.90
6468;DHT22;3267;48.794;9.928;2023-05-14T17:37:41;30.50;60.80
6468;DHT22;3267;48.794;9.928;2023-05-14T17:40:08;30.30;61.10
6468;DHT22;3267;48.794;9.928;2023-05-14T17:42:36;30.10;59.40
6468;DHT22;3267;48.794;9.928;2023-05-14T17:52:05;28.30;63.20
6468;DHT22;3267;48.794;9.928;2023-05-14T17:54:31;27.50;64.50
6468;DHT22;3267;48.794;9.928;2023-05-14T17:56:57;28.50;66.50
6468;DHT22;3267;48.794;9.928;2023-05-14T17:59:22;26.40;66.40
6468;DHT22;3267;48.794;9.928;2023-05-14T18:01:48;26.00;67.40
6468;DHT22;3267;48.794;9.928;2023-05-14T18:04:14;25.60;68.10
6468;DHT22;3267;48.794;9.928;2023-05-14T18:06:39;28.00;70.60
6468;DHT22;3267;48.794;9.928;2023-05-14T18:09:05;25.00;69.20
6468;DHT22;3267;48.794;9.928;2023-05-14T18:11:31;24.50;72.50
6468;DHT22;3267;48.794;9.928;2023-05-14T18:14:00;24.50;69.20
6468;DHT22;3267;48.794;9.928;2023-05-14T18:16:25;24.30;69.50
6468;DHT22;3267;48.794;9.928;2023-05-14T18:18:51;27.10;72.70
6468;DHT22;3267;48.794;9.928;2023-05-14T18:21:17;23.80;70.10
6468;DHT22;3267;48.794;9.928;2023-05-14T18:23:42;26.30;72.90
6468;DHT22;3267;48.794;9.928;2023-05-14T18:26:08;23.40;71.10
6468;DHT22;3267;48.794;9.928;2023-05-14T18:28:35;23.20;71.10
6468;DHT22;3267;48.794;9.928;2023-05-14T18:31:00;23.00;70.60
6468;DHT22;3267;48.794;9.928;2023-05-14T18:33:29;22.70;70.40
6468;DHT22;3267;48.794;9.928;2023-05-14T18:35:54;23.20;71.10
6468;DHT22;3267;48.794;9.928;2023-05-14T18:38:20;22.40;71.30
6468;DHT22;3267;48.794;9.928;2023-05-14T18:40:45;24.10;72.90
6468;DHT22;3267;48.794;9.928;2023-05-14T18:43:11;22.00;71.20
6468;DHT22;3267;48.794;9.928;2023-05-14T18:45:40;21.80;71.20
6468;DHT22;3267;48.794;9.928;2023-05-14T18:48:07;21.70;70.90
6468;DHT22;3267;48.794;9.928;2023-05-14T18:50:33;21.60;70.90
6468;DHT22;3267;48.794;9.928;2023-05-14T18:52:59;21.40;71.10
6468;DHT22;3267;48.794;9.928;2023-05-14T18:55:24;21.30;71.60
6468;DHT22;3267;48.794;9.928;2023-05-14T18:57:50;21.30;71.90
6468;DHT22;3267;48.794;9.928;2023-05-14T19:00:16;22.90;73.50
6468;DHT22;3267;48.794;9.928;2023-05-14T19:02:42;21.00;71.50
6468;DHT22;3267;48.794;9.928;2023-05-14T19:05:08;20.90;71.10
6468;DHT22;3267;48.794;9.928;2023-05-14T19:07:36;20.80;71.20
6468;DHT22;3267;48.794;9.928;2023-05-14T19:10:01;20.70;71.20
6468;DHT22;3267;48.794;9.928;2023-05-14T19:12:28;20.60;71.00
6468;DHT22;3267;48.794;9.928;2023-05-14T19:14:53;20.50;70.90
6468;DHT22;3267;48.794;9.928;2023-05-14T19:17:19;20.50;71.60
6468;DHT22;3267;48.794;9.928;2023-05-14T19:19:45;20.40;70.90
6468;DHT22;3267;48.794;9.928;2023-05-14T19:22:10;23.30;74.20
6468;DHT22;3267;48.794;9.928;2023-05-14T19:24:36;23.40;74.60
6468;DHT22;3267;48.794;9.928;2023-05-14T19:27:02;20.30;72.30
6468;DHT22;3267;48.794;9.928;2023-05-14T19:29:28;20.30;72.50
6468;DHT22;3267;48.794;9.928;2023-05-14T19:31:53;20.30;72.20
6468;DHT22;3267;48.794;9.928;2023-05-14T19:34:19;20.20;73.60
6468;DHT22;3267;48.794;9.928;2023-05-14T19:36:45;20.20;72.70
6468;DHT22;3267;48.794;9.928;2023-05-14T19:39:10;20.10;72.20
6468;DHT22;3267;48.794;9.928;2023-05-14T19:41:36;20.00;71.80
6468;DHT22;3267;48.794;9.928;2023-05-14T19:44:01;19.90;71.70
6468;DHT22;3267;48.794;9.928;2023-05-14T19:46:28;20.70;72.50
6468;DHT22;3267;48.794;9.928;2023-05-14T19:48:53;19.80;71.40
6468;DHT22;3267;48.794;9.928;2023-05-14T19:51:19;19.70;71.20
6468;DHT22;3267;48.794;9.928;2023-05-14T19:53:44;19.70;71.10
6468;DHT22;3267;48.794;9.928;2023-05-14T19:56:10;19.80;73.40
6468;DHT22;3267;48.794;9.928;2023-05-14T19:58:35;19.70;73.50
6468;DHT22;3267;48.794;9.928;2023-05-14T20:01:01;19.80;72.20
6468;DHT22;3267;48.794;9.928;2023-05-14T20:03:27;19.90;72.50
6468;DHT22;3267;48.794;9.928;2023-05-14T20:05:53;19.90;75.30
6468;DHT22;3267;48.794;9.928;2023-05-14T20:08:19;20.50;76.30